createdAt,value
2018-05-26T00:01:03.468Z,19.29
2018-05-26T00:03:32.474Z,19.21
2018-05-26T00:06:00.820Z,19.16
2018-05-26T00:08:30.194Z,18.96
2018-05-26T00:10:58.587Z,18.69
2018-05-26T00:13:26.980Z,18.67
2018-05-26T00:15:55.307Z,18.57
2018-05-26T00:18:23.673Z,18.52
2018-05-26T00:20:52.558Z,18.62
2018-05-26T00:23:20.904Z,18.52
2018-05-26T00:25:49.960Z,18.46
2018-05-26T00:28:18.626Z,18.51
2018-05-26T00:30:46.971Z,18.50
2018-05-26T00:33:15.335Z,18.41
2018-05-26T00:35:43.663Z,18.47
2018-05-26T00:38:12.378Z,18.44
2018-05-26T00:40:40.725Z,18.48
2018-05-26T00:43:09.205Z,18.42
2018-05-26T00:45:37.576Z,18.35
2018-05-26T00:48:05.971Z,18.38
2018-05-26T00:50:34.882Z,18.31
2018-05-26T00:53:03.250Z,18.35
2018-05-26T00:55:31.833Z,18.36
2018-05-26T00:58:00.625Z,18.31
2018-05-26T01:00:30.600Z,18.32
2018-05-26T01:02:58.965Z,18.36
2018-05-26T01:05:27.622Z,18.21
2018-05-26T01:07:55.993Z,18.23
2018-05-26T01:10:24.378Z,18.11
2018-05-26T01:12:52.747Z,18.15
2018-05-26T01:15:21.361Z,18.15
2018-05-26T01:17:50.582Z,18.24
2018-05-26T01:20:18.909Z,18.18
2018-05-26T01:22:47.579Z,18.06
2018-05-26T01:25:16.680Z,18.02
2018-05-26T01:27:45.037Z,18.05
2018-05-26T01:30:13.890Z,17.96
2018-05-26T01:32:42.307Z,17.91
2018-05-26T01:35:11.047Z,17.84
2018-05-26T01:37:39.832Z,17.85
2018-05-26T01:40:09.418Z,17.92
2018-05-26T01:42:38.575Z,17.88
2018-05-26T01:45:06.929Z,17.82
2018-05-26T01:47:35.288Z,17.76
2018-05-26T01:50:03.684Z,17.56
2018-05-26T01:52:33.661Z,17.50
2018-05-26T01:55:02.054Z,17.45
2018-05-26T01:57:30.417Z,17.40
2018-05-26T01:59:58.758Z,17.39
2018-05-26T02:02:27.615Z,17.38
2018-05-26T02:04:55.977Z,17.31
2018-05-26T02:07:24.328Z,17.49
2018-05-26T02:09:52.723Z,17.51
2018-05-26T02:12:21.185Z,17.51
2018-05-26T02:14:49.555Z,17.63
2018-05-26T02:17:17.909Z,17.50
2018-05-26T02:19:46.434Z,17.43
2018-05-26T02:22:15.532Z,17.50
2018-05-26T02:24:44.121Z,17.52
2018-05-26T02:27:12.458Z,17.51
2018-05-26T02:29:40.873Z,17.60
2018-05-26T02:32:09.706Z,17.60
2018-05-26T02:34:38.116Z,17.51
2018-05-26T02:37:07.364Z,17.34
2018-05-26T02:39:36.534Z,17.42
2018-05-26T02:42:04.928Z,17.38
2018-05-26T02:44:33.288Z,17.26
2018-05-26T02:47:02.179Z,17.17
2018-05-26T02:49:30.584Z,17.13
2018-05-26T02:51:58.932Z,17.12
2018-05-26T02:54:28.591Z,16.95
2018-05-26T02:56:58.161Z,17.09
2018-05-26T02:59:26.548Z,17.00
2018-05-26T03:01:55.611Z,16.98
2018-05-26T03:04:29.521Z,16.97
2018-05-26T03:07:04.715Z,16.99
2018-05-26T03:09:38.658Z,17.07
2018-05-26T03:12:12.521Z,17.13
2018-05-26T03:14:46.563Z,17.21
2018-05-26T03:17:15.851Z,17.23
2018-05-26T03:19:44.207Z,17.03
2018-05-26T03:22:13.714Z,16.77
2018-05-26T03:24:42.599Z,16.65
2018-05-26T03:27:11.157Z,16.78
2018-05-26T03:29:39.518Z,16.67
2018-05-26T03:32:08.705Z,16.61
2018-05-26T03:34:37.081Z,16.57
2018-05-26T03:37:06.289Z,16.59
2018-05-26T03:39:34.904Z,16.60
2018-05-26T03:42:03.238Z,16.74
2018-05-26T03:44:32.654Z,16.62
2018-05-26T03:47:01.884Z,16.61
2018-05-26T03:49:31.380Z,16.71
2018-05-26T03:51:59.749Z,16.78
2018-05-26T03:54:40.828Z,16.81
2018-05-26T03:57:20.864Z,16.91
2018-05-26T04:02:58.499Z,17.04
2018-05-26T04:05:27.181Z,17.03
2018-05-26T04:07:56.648Z,16.96
2018-05-26T04:10:25.949Z,17.02
2018-05-26T04:12:54.561Z,17.00
2018-05-26T04:15:23.228Z,17.04
2018-05-26T04:17:51.556Z,17.07
2018-05-26T04:20:19.933Z,17.02
2018-05-26T04:22:48.438Z,16.85
2018-05-26T04:25:16.811Z,16.91
2018-05-26T04:27:45.160Z,16.90
2018-05-26T04:30:13.532Z,16.87
2018-05-26T04:32:42.101Z,16.92
2018-05-26T04:35:11.028Z,16.96
2018-05-26T04:37:39.371Z,16.92
2018-05-26T04:40:08.206Z,16.93
2018-05-26T04:42:36.640Z,16.94
2018-05-26T04:45:05.010Z,17.11
2018-05-26T04:47:34.131Z,17.19
2018-05-26T04:50:03.438Z,17.19
2018-05-26T04:52:32.255Z,17.24
2018-05-26T04:55:00.636Z,17.29
2018-05-26T04:57:28.984Z,17.35
2018-05-26T04:59:57.347Z,17.54
2018-05-26T05:02:25.691Z,17.58
2018-05-26T05:04:54.111Z,17.71
2018-05-26T05:07:22.456Z,17.82
2018-05-26T05:09:50.835Z,17.93
2018-05-26T05:12:19.563Z,17.95
2018-05-26T05:14:47.966Z,18.09
2018-05-26T05:17:16.361Z,18.12
2018-05-26T05:19:45.673Z,18.07
2018-05-26T05:22:14.741Z,18.24
2018-05-26T05:24:43.148Z,18.28
2018-05-26T05:27:12.413Z,18.23
2018-05-26T05:29:40.844Z,18.30
2018-05-26T05:32:09.203Z,18.44
2018-05-26T05:34:37.564Z,18.47
2018-05-26T05:37:05.956Z,18.64
2018-05-26T05:39:34.334Z,18.71
2018-05-26T05:42:03.596Z,18.82
2018-05-26T05:44:33.046Z,18.97
2018-05-26T05:47:01.385Z,19.07
2018-05-26T05:49:29.766Z,19.20
2018-05-26T05:51:58.160Z,19.26
2018-05-26T05:54:26.532Z,19.34
2018-05-26T05:56:54.917Z,19.42
2018-05-26T05:59:23.333Z,19.39
2018-05-26T06:01:52.977Z,19.56
2018-05-26T06:04:22.260Z,19.60
2018-05-26T06:06:50.634Z,19.63
2018-05-26T06:09:19.153Z,19.71
2018-05-26T06:11:47.983Z,19.86
2018-05-26T06:14:16.704Z,20.01
2018-05-26T06:16:45.035Z,20.03
2018-05-26T06:19:13.755Z,20.10
2018-05-26T06:21:42.541Z,20.24
2018-05-26T06:24:11.348Z,20.37
2018-05-26T06:26:39.726Z,20.41
2018-05-26T06:29:08.113Z,20.48
2018-05-26T06:31:36.578Z,20.58
2018-05-26T06:34:05.255Z,20.76
2018-05-26T06:36:33.944Z,20.72
2018-05-26T06:39:03.145Z,20.92
2018-05-26T06:41:32.417Z,20.93
2018-05-26T06:44:01.488Z,21.08
2018-05-26T06:46:30.765Z,21.08
2018-05-26T06:48:59.869Z,21.05
2018-05-26T06:51:28.225Z,21.27
2018-05-26T06:53:56.997Z,21.45
2018-05-26T06:56:26.432Z,21.64
2018-05-26T06:58:55.191Z,21.66
2018-05-26T07:01:24.471Z,21.83
2018-05-26T07:03:52.829Z,21.91
2018-05-26T07:06:21.231Z,21.90
2018-05-26T07:08:50.293Z,22.04
2018-05-26T07:11:18.914Z,22.19
2018-05-26T07:13:48.881Z,22.31
2018-05-26T07:16:18.101Z,22.38
2018-05-26T07:18:47.355Z,22.54
2018-05-26T07:21:15.728Z,22.52
2018-05-26T07:23:44.516Z,22.25
2018-05-26T07:26:13.461Z,22.62
2018-05-26T07:28:41.797Z,22.54
2018-05-26T07:31:10.492Z,22.76
2018-05-26T07:33:39.665Z,22.73
2018-05-26T07:36:08.196Z,22.85
2018-05-26T07:38:36.550Z,22.95
2018-05-26T07:41:04.927Z,23.07
2018-05-26T07:43:33.266Z,23.08
2018-05-26T07:46:01.955Z,23.25
2018-05-26T07:48:30.283Z,23.24
2018-05-26T07:50:58.641Z,23.39
2018-05-26T07:53:27.713Z,23.48
2018-05-26T07:55:56.078Z,23.45
2018-05-26T07:58:25.050Z,23.51
2018-05-26T08:00:53.860Z,23.56
2018-05-26T08:03:22.186Z,23.79
2018-05-26T08:05:50.559Z,23.52
2018-05-26T08:08:18.901Z,23.92
2018-05-26T08:10:47.326Z,24.15
2018-05-26T08:13:15.686Z,24.01
2018-05-26T08:15:45.471Z,24.14
2018-05-26T08:18:13.799Z,24.22
2018-05-26T08:20:42.635Z,24.19
2018-05-26T08:23:14.721Z,24.45
2018-05-26T08:25:43.341Z,24.53
2018-05-26T08:28:11.983Z,24.71
2018-05-26T08:30:40.350Z,24.70
2018-05-26T08:33:09.241Z,24.87
2018-05-26T08:35:37.591Z,24.66
2018-05-26T08:38:05.930Z,24.38
2018-05-26T08:40:34.294Z,24.64
2018-05-26T08:43:02.626Z,24.51
2018-05-26T08:45:31.034Z,24.72
2018-05-26T08:48:00.130Z,24.94
2018-05-26T08:50:28.504Z,25.18
2018-05-26T08:52:56.871Z,25.19
2018-05-26T08:55:25.237Z,25.39
2018-05-26T08:57:53.588Z,25.25
2018-05-26T09:00:22.015Z,25.47
2018-05-26T09:02:50.358Z,25.45
2018-05-26T09:05:18.724Z,25.49
2018-05-26T09:07:47.669Z,25.56
2018-05-26T09:10:16.726Z,25.39
2018-05-26T09:12:45.281Z,25.67
2018-05-26T09:15:13.623Z,25.65
2018-05-26T09:17:41.974Z,25.81
2018-05-26T09:20:10.388Z,25.99
2018-05-26T09:22:39.260Z,25.92
2018-05-26T09:25:08.154Z,25.40
2018-05-26T09:27:36.489Z,25.27
2018-05-26T09:30:05.721Z,25.67
2018-05-26T09:32:34.066Z,25.35
2018-05-26T09:35:02.752Z,25.75
2018-05-26T09:37:31.072Z,25.85
2018-05-26T09:39:59.462Z,25.83
2018-05-26T09:42:27.802Z,25.82
2018-05-26T09:44:56.747Z,26.29
2018-05-26T09:47:25.084Z,26.23
2018-05-26T09:49:53.411Z,26.57
2018-05-26T09:52:22.678Z,27.12
2018-05-26T09:54:51.133Z,27.13
2018-05-26T09:57:19.801Z,27.51
2018-05-26T09:59:48.126Z,27.60
2018-05-26T10:02:16.490Z,27.60
2018-05-26T10:04:45.998Z,27.03
2018-05-26T10:07:14.397Z,27.32
2018-05-26T10:09:43.581Z,27.69
2018-05-26T10:12:12.223Z,28.01
2018-05-26T10:14:40.553Z,28.35
2018-05-26T10:17:08.973Z,28.46
2018-05-26T10:19:37.394Z,28.36
2018-05-26T10:22:09.622Z,28.17
2018-05-26T10:24:37.955Z,28.34
2018-05-26T10:27:06.345Z,28.00
2018-05-26T10:29:34.686Z,28.47
2018-05-26T10:32:03.037Z,28.79
2018-05-26T10:34:31.771Z,28.88
2018-05-26T10:37:01.569Z,28.76
2018-05-26T10:39:30.275Z,28.78
2018-05-26T10:41:58.756Z,29.00
2018-05-26T10:44:27.121Z,28.61
2018-05-26T10:46:55.505Z,28.13
2018-05-26T10:49:23.909Z,29.00
2018-05-26T10:51:53.104Z,28.92
2018-05-26T10:54:21.961Z,28.92
2018-05-26T10:56:51.244Z,29.25
2018-05-26T10:59:19.965Z,29.31
2018-05-26T11:01:48.360Z,29.59
2018-05-26T11:04:22.988Z,29.68
2018-05-26T11:06:51.345Z,30.12
2018-05-26T11:09:20.242Z,30.03
2018-05-26T11:11:48.598Z,30.17
2018-05-26T11:14:17.394Z,30.11
2018-05-26T11:16:46.083Z,30.44
2018-05-26T11:19:14.407Z,29.71
2018-05-26T11:21:43.089Z,29.77
2018-05-26T11:24:11.516Z,29.69
2018-05-26T11:26:40.393Z,29.25
2018-05-26T11:29:08.861Z,29.59
2018-05-26T11:31:37.255Z,29.32
2018-05-26T11:34:05.574Z,29.69
2018-05-26T11:36:33.941Z,29.84
2018-05-26T11:39:04.470Z,29.59
2018-05-26T11:41:32.846Z,29.21
2018-05-26T11:44:01.835Z,29.73
2018-05-26T11:46:30.254Z,30.33
2018-05-26T11:48:58.590Z,30.70
2018-05-26T11:51:27.830Z,29.84
2018-05-26T11:53:56.159Z,30.73
2018-05-26T11:56:24.524Z,29.81
2018-05-26T11:58:52.850Z,30.22
2018-05-26T12:01:21.221Z,30.72
2018-05-26T12:03:49.569Z,30.78
2018-05-26T12:06:17.931Z,31.06
2018-05-26T12:08:46.688Z,30.76
2018-05-26T12:11:15.147Z,30.71
2018-05-26T12:13:45.249Z,30.22
2018-05-26T12:16:13.959Z,29.75
2018-05-26T12:18:42.292Z,29.63
2018-05-26T12:21:10.632Z,30.01
2018-05-26T12:23:38.971Z,29.63
2018-05-26T12:26:07.404Z,30.61
2018-05-26T12:28:36.028Z,29.95
2018-05-26T12:31:04.709Z,30.40
2018-05-26T12:33:33.749Z,31.18
2018-05-26T12:36:02.903Z,31.08
2018-05-26T12:38:31.476Z,30.44
2018-05-26T12:41:00.359Z,31.37
2018-05-26T12:43:29.349Z,31.36
2018-05-26T12:45:57.712Z,30.98
2018-05-26T12:48:26.050Z,30.37
2018-05-26T12:50:54.461Z,30.12
2018-05-26T12:53:23.075Z,29.83
2018-05-26T12:55:51.441Z,29.68
2018-05-26T12:58:20.562Z,30.25
2018-05-26T13:00:49.150Z,30.66
2018-05-26T13:03:17.530Z,31.28
2018-05-26T13:05:47.148Z,30.99
2018-05-26T13:08:15.471Z,29.89
2018-05-26T13:10:43.881Z,29.93
2018-05-26T13:13:12.284Z,30.00
2018-05-26T13:15:40.641Z,29.98
2018-05-26T13:18:08.980Z,29.88
2018-05-26T13:20:37.327Z,30.00
2018-05-26T13:23:05.681Z,29.99
2018-05-26T13:25:34.033Z,29.40
2018-05-26T13:28:03.159Z,30.15
2018-05-26T13:30:31.488Z,30.30
2018-05-26T13:32:59.895Z,30.82
2018-05-26T13:35:28.274Z,30.80
2018-05-26T13:37:56.648Z,30.42
2018-05-26T13:40:25.004Z,29.82
2018-05-26T13:42:53.364Z,29.45
2018-05-26T13:45:22.119Z,29.51
2018-05-26T13:47:51.204Z,30.12
2018-05-26T13:50:19.549Z,30.27
2018-05-26T13:52:49.219Z,30.55
2018-05-26T13:55:18.521Z,30.20
2018-05-26T13:57:48.565Z,30.99
2018-05-26T14:00:17.811Z,30.75
2018-05-26T14:02:46.996Z,30.23
2018-05-26T14:05:16.191Z,30.45
2018-05-26T14:07:44.547Z,30.12
2018-05-26T14:10:13.155Z,30.29
2018-05-26T14:12:42.354Z,30.13
2018-05-26T14:15:11.365Z,30.45
2018-05-26T14:17:39.721Z,30.36
2018-05-26T14:20:08.045Z,30.46
2018-05-26T14:22:38.573Z,30.91
2018-05-26T14:25:06.951Z,30.80
2018-05-26T14:27:36.299Z,30.61
2018-05-26T14:30:04.637Z,30.95
2018-05-26T14:32:32.985Z,30.71
2018-05-26T14:35:01.320Z,31.04
2018-05-26T14:37:29.680Z,31.63
2018-05-26T14:39:58.008Z,31.78
2018-05-26T14:42:26.406Z,31.70
2018-05-26T14:44:54.732Z,31.76
2018-05-26T14:47:24.728Z,32.39
2018-05-26T14:49:53.099Z,32.74
2018-05-26T14:52:21.750Z,32.53
2018-05-26T14:54:50.069Z,32.92
2018-05-26T14:57:18.953Z,32.98
2018-05-26T14:59:47.297Z,32.70
2018-05-26T15:02:15.993Z,32.73
2018-05-26T15:04:44.472Z,33.14
2018-05-26T15:07:13.254Z,33.43
2018-05-26T15:09:42.056Z,33.03
2018-05-26T15:12:10.610Z,32.38
2018-05-26T15:14:38.952Z,32.68
2018-05-26T15:17:07.350Z,32.60
2018-05-26T15:19:36.114Z,32.59
2018-05-26T15:22:05.763Z,32.62
2018-05-26T15:24:35.192Z,32.63
2018-05-26T15:27:03.551Z,32.48
2018-05-26T15:29:34.084Z,32.71
2018-05-26T15:32:02.476Z,32.64
2018-05-26T15:34:30.824Z,32.55
2018-05-26T15:36:59.553Z,32.23
2018-05-26T15:39:28.270Z,32.31
2018-05-26T15:41:56.631Z,32.17
2018-05-26T15:44:25.327Z,31.73
2018-05-26T15:46:53.969Z,31.66
2018-05-26T15:49:23.012Z,31.04
2018-05-26T15:51:51.372Z,31.18
2018-05-26T15:54:20.071Z,31.15
2018-05-26T15:56:48.456Z,31.10
2018-05-26T15:59:16.802Z,31.23
2018-05-26T16:01:45.566Z,31.24
2018-05-26T16:04:13.976Z,31.34
2018-05-26T16:06:42.363Z,31.21
2018-05-26T16:09:12.332Z,31.25
2018-05-26T16:11:40.698Z,31.35
2018-05-26T16:14:09.035Z,31.50
2018-05-26T16:16:37.397Z,31.34
2018-05-26T16:19:06.952Z,31.24
2018-05-26T16:21:35.305Z,31.29
2018-05-26T16:24:03.639Z,30.71
2018-05-26T16:26:32.868Z,30.85
2018-05-26T16:29:01.296Z,30.52
2018-05-26T16:31:29.650Z,30.49
2018-05-26T16:33:57.988Z,30.33
2018-05-26T16:36:26.356Z,29.87
2018-05-26T16:38:55.247Z,29.88
2018-05-26T16:41:23.594Z,30.01
2018-05-26T16:43:52.697Z,30.09
2018-05-26T16:46:21.060Z,29.70
2018-05-26T16:48:49.460Z,29.35
2018-05-26T16:51:17.825Z,28.59
2018-05-26T16:53:46.189Z,28.29
2018-05-26T16:56:14.517Z,28.08
2018-05-26T16:58:42.886Z,27.99
2018-05-26T17:01:11.264Z,28.30
2018-05-26T17:03:39.623Z,28.10
2018-05-26T17:06:08.441Z,28.39
2018-05-26T17:08:36.836Z,28.45
2018-05-26T17:11:06.424Z,28.30
2018-05-26T17:13:34.906Z,27.94
2018-05-26T17:16:03.243Z,28.24
2018-05-26T17:18:31.597Z,27.91
2018-05-26T17:21:00.238Z,27.71
2018-05-26T17:23:28.601Z,27.63
2018-05-26T17:25:56.929Z,27.84
2018-05-26T17:28:26.189Z,27.93
2018-05-26T17:30:54.538Z,28.22
2018-05-26T17:33:23.799Z,28.22
2018-05-26T17:35:52.247Z,27.86
2018-05-26T17:38:21.565Z,28.12
2018-05-26T17:40:49.909Z,28.25
2018-05-26T17:43:18.301Z,28.56
2018-05-26T17:45:46.660Z,28.66
2018-05-26T17:48:15.643Z,28.76
2018-05-26T17:50:44.019Z,28.84
2018-05-26T17:53:12.748Z,28.76
2018-05-26T17:55:41.997Z,28.78
2018-05-26T17:58:10.371Z,28.90
2018-05-26T18:00:39.391Z,28.70
2018-05-26T18:03:07.994Z,28.60
2018-05-26T18:05:36.631Z,28.24
2018-05-26T18:08:05.364Z,28.13
2018-05-26T18:10:33.697Z,28.11
2018-05-26T18:13:02.915Z,28.04
2018-05-26T18:15:31.257Z,27.94
2018-05-26T18:17:59.665Z,27.93
2018-05-26T18:20:28.052Z,27.83
2018-05-26T18:22:56.394Z,27.84
2018-05-26T18:25:25.129Z,27.86
2018-05-26T18:27:53.814Z,27.77
2018-05-26T18:30:22.161Z,27.71
2018-05-26T18:32:51.444Z,27.72
2018-05-26T18:35:20.251Z,27.59
2018-05-26T18:37:48.610Z,27.76
2018-05-26T18:40:16.924Z,27.79
2018-05-26T18:42:45.806Z,27.68
2018-05-26T18:45:14.365Z,27.52
2018-05-26T18:47:42.753Z,27.38
2018-05-26T18:50:11.524Z,26.98
2018-05-26T18:52:39.892Z,26.81
2018-05-26T18:55:08.284Z,26.96
2018-05-26T18:57:37.115Z,26.88
2018-05-26T19:00:07.406Z,26.60
2018-05-26T19:02:36.545Z,26.57
2018-05-26T19:05:04.892Z,26.44
2018-05-26T19:07:33.514Z,26.40
2018-05-26T19:10:02.566Z,26.23
2018-05-26T19:12:31.297Z,26.20
2018-05-26T19:14:59.626Z,25.90
2018-05-26T19:17:27.997Z,25.66
2018-05-26T19:19:56.312Z,25.67
2018-05-26T19:22:24.672Z,25.64
2018-05-26T19:24:53.395Z,25.62
2018-05-26T19:27:21.776Z,25.63
2018-05-26T19:29:50.106Z,25.65
2018-05-26T19:32:18.491Z,25.40
2018-05-26T19:34:46.943Z,25.30
2018-05-26T19:37:15.377Z,25.30
2018-05-26T19:39:43.704Z,25.36
2018-05-26T19:42:12.065Z,25.40
2018-05-26T19:44:41.193Z,25.25
2018-05-26T19:47:09.533Z,25.22
2018-05-26T19:49:37.931Z,25.12
2018-05-26T19:52:06.318Z,24.84
2018-05-26T19:54:34.744Z,24.88
2018-05-26T19:57:03.934Z,24.85
2018-05-26T19:59:32.311Z,24.77
2018-05-26T20:02:00.922Z,24.53
2018-05-26T20:04:29.292Z,24.61
2018-05-26T20:06:57.665Z,24.38
2018-05-26T20:09:26.044Z,24.46
2018-05-26T20:11:54.815Z,24.33
2018-05-26T20:14:23.173Z,24.32
2018-05-26T20:16:51.618Z,24.16
2018-05-26T20:19:19.970Z,24.10
2018-05-26T20:21:48.341Z,23.93
2018-05-26T20:24:16.680Z,23.87
2018-05-26T20:26:45.010Z,23.95
2018-05-26T20:29:13.372Z,23.91
2018-05-26T20:31:41.698Z,23.77
2018-05-26T20:34:10.102Z,23.88
2018-05-26T20:36:38.540Z,23.87
2018-05-26T20:39:07.577Z,23.83
2018-05-26T20:41:37.341Z,23.58
2018-05-26T20:44:05.716Z,23.59
2018-05-26T20:46:34.058Z,23.62
2018-05-26T20:49:03.248Z,23.52
2018-05-26T20:51:31.573Z,23.49
2018-05-26T20:53:59.937Z,23.52
2018-05-26T20:56:28.831Z,23.48
2018-05-26T20:58:57.187Z,23.27
2018-05-26T21:01:26.445Z,23.23
2018-05-26T21:03:55.443Z,22.99
2018-05-26T21:06:24.173Z,22.89
2018-05-26T21:08:52.521Z,22.78
2018-05-26T21:11:20.862Z,22.89
2018-05-26T21:13:49.230Z,22.75
2018-05-26T21:16:17.635Z,22.75
2018-05-26T21:18:46.240Z,22.80
2018-05-26T21:21:14.655Z,22.76
2018-05-26T21:23:42.985Z,22.71
2018-05-26T21:26:13.082Z,22.76
2018-05-26T21:28:42.164Z,22.61
2018-05-26T21:31:10.492Z,22.60
2018-05-26T21:33:38.836Z,22.54
2018-05-26T21:36:07.185Z,22.54
2018-05-26T21:38:35.866Z,22.46
2018-05-26T21:41:04.234Z,22.60
2018-05-26T21:43:33.510Z,22.48
2018-05-26T21:46:01.847Z,22.55
2018-05-26T21:48:30.817Z,22.45
2018-05-26T21:50:59.184Z,22.38
2018-05-26T21:53:27.887Z,22.36
2018-05-26T21:55:56.239Z,22.38
2018-05-26T21:58:25.144Z,22.45
2018-05-26T22:00:55.018Z,22.29
2018-05-26T22:03:23.935Z,22.17
2018-05-26T22:05:52.574Z,22.30
2018-05-26T22:08:21.336Z,22.17
2018-05-26T22:10:49.671Z,22.26
2018-05-26T22:13:18.073Z,22.09
2018-05-26T22:15:46.408Z,22.05
2018-05-26T22:18:14.821Z,22.10
2018-05-26T22:20:43.114Z,22.07
2018-05-26T22:23:11.495Z,22.09
2018-05-26T22:25:39.834Z,22.06
2018-05-26T22:28:08.191Z,22.02
2018-05-26T22:30:36.850Z,22.05
2018-05-26T22:33:05.920Z,21.96
2018-05-26T22:35:34.560Z,21.76
2018-05-26T22:38:03.066Z,21.67
2018-05-26T22:40:31.762Z,21.72
2018-05-26T22:43:00.484Z,21.58
2018-05-26T22:45:28.824Z,21.56
2018-05-26T22:47:57.892Z,21.57
2018-05-26T22:50:26.639Z,21.60
2018-05-26T22:52:55.975Z,21.60
2018-05-26T22:55:24.762Z,21.57
2018-05-26T22:57:53.098Z,21.59
2018-05-26T23:00:24.456Z,21.50
2018-05-26T23:02:53.723Z,21.57
2018-05-26T23:05:22.083Z,21.60
2018-05-26T23:07:50.405Z,21.56
2018-05-26T23:10:19.525Z,21.56
2018-05-26T23:12:47.957Z,21.57
2018-05-26T23:15:17.469Z,21.60
2018-05-26T23:17:45.817Z,21.52
2018-05-26T23:20:14.470Z,21.47
2018-05-26T23:22:42.811Z,21.26
2018-05-26T23:25:11.812Z,21.33
2018-05-26T23:27:41.010Z,21.32
2018-05-26T23:30:09.905Z,21.04
2018-05-26T23:32:38.598Z,20.96
2018-05-26T23:35:06.974Z,20.94
2018-05-26T23:37:36.250Z,20.83
2018-05-26T23:40:04.850Z,20.83
2018-05-26T23:42:33.206Z,20.81
2018-05-26T23:45:01.932Z,20.75
2018-05-26T23:47:30.315Z,20.62
2018-05-26T23:49:58.761Z,20.64
2018-05-26T23:52:27.122Z,20.67
2018-05-26T23:54:55.490Z,20.66
2018-05-26T23:57:23.823Z,20.64
2018-05-26T23:59:52.814Z,20.56
